sensor_id;sensor_type;location;lat;lon;timestamp;temperature;humidity
44166;DHT22;30476;53.468;9.826;2023-02-22T00:01:16;10.30;99.90
44166;DHT22;30476;53.468;9.826;2023-02-22T00:04:01;10.30;99.90
44166;DHT22;30476;53.468;9.826;2023-02-22T00:06:27;10.30;99.90
44166;DHT22;30476;53.468;9.826;2023-02-22T00:08:54;10.30;99.90
44166;DHT22;30476;53.468;9.826;2023-02-22T00:11:20;10.30;99.90
44166;DHT22;30476;53.468;9.826;2023-02-22T00:13:46;10.30;99.90
44166;DHT22;30476;53.468;9.826;2023-02-22T00:16:20;10.30;99.90
44166;DHT22;30476;53.468;9.826;2023-02-22T00:18:47;10.30;99.90
44166;DHT22;30476;53.468;9.826;2023-02-22T00:21:14;10.30;99.90
44166;DHT22;30476;53.468;9.826;2023-02-22T00:23:43;10.30;99.90
44166;DHT22;30476;53.468;9.826;2023-02-22T00:26:14;10.30;99.90
44166;DHT22;30476;53.468;9.826;2023-02-22T00:28:48;10.30;99.90
44166;DHT22;30476;53.468;9.826;2023-02-22T00:31:14;10.30;99.90
44166;DHT22;30476;53.468;9.826;2023-02-22T00:33:40;10.30;99.90
44166;DHT22;30476;53.468;9.826;2023-02-22T00:36:07;10.30;99.90
44166;DHT22;30476;53.468;9.826;2023-02-22T00:38:34;10.30;99.90
44166;DHT22;30476;53.468;9.826;2023-02-22T00:40:59;10.30;99.90
44166;DHT22;30476;53.468;9.826;2023-02-22T00:43:25;10.40;99.90
44166;DHT22;30476;53.468;9.826;2023-02-22T00:45:51;10.30;99.90
44166;DHT22;30476;53.468;9.826;2023-02-22T00:48:18;10.30;99.90
44166;DHT22;30476;53.468;9.826;2023-02-22T00:50:45;10.30;99.90
44166;DHT22;30476;53.468;9.826;2023-02-22T00:53:13;10.40;99.90
44166;DHT22;30476;53.468;9.826;2023-02-22T00:55:39;10.40;99.90
44166;DHT22;30476;53.468;9.826;2023-02-22T00:58:05;10.40;99.90
44166;DHT22;30476;53.468;9.826;2023-02-22T01:00:38;10.40;99.90
44166;DHT22;30476;53.468;9.826;2023-02-22T01:03:07;10.40;99.90
44166;DHT22;30476;53.468;9.826;2023-02-22T01:05:33;10.40;99.90
44166;DHT22;30476;53.468;9.826;2023-02-22T01:08:00;10.40;99.90
44166;DHT22;30476;53.468;9.826;2023-02-22T01:10:29;10.40;99.90
44166;DHT22;30476;53.468;9.826;2023-02-22T01:12:56;10.40;99.90
44166;DHT22;30476;53.468;9.826;2023-02-22T01:15:23;10.40;99.90
44166;DHT22;30476;53.468;9.826;2023-02-22T01:17:51;10.40;99.90
44166;DHT22;30476;53.468;9.826;2023-02-22T01:20:19;10.40;99.90
44166;DHT22;30476;53.468;9.826;2023-02-22T01:22:48;10.40;99.90
44166;DHT22;30476;53.468;9.826;2023-02-22T01:25:19;10.40;99.90
44166;DHT22;30476;53.468;9.826;2023-02-22T01:27:45;10.40;99.90
44166;DHT22;30476;53.468;9.826;2023-02-22T01:30:13;10.40;99.90
44166;DHT22;30476;53.468;9.826;2023-02-22T01:32:40;10.40;99.90
44166;DHT22;30476;53.468;9.826;2023-02-22T01:35:11;10.40;99.90
44166;DHT22;30476;53.468;9.826;2023-02-22T01:37:39;10.40;99.90
44166;DHT22;30476;53.468;9.826;2023-02-22T01:40:07;10.40;99.90
44166;DHT22;30476;53.468;9.826;2023-02-22T01:42:33;10.30;99.90
44166;DHT22;30476;53.468;9.826;2023-02-22T01:48:04;10.40;99.90
44166;DHT22;30476;53.468;9.826;2023-02-22T01:50:34;10.40;99.90
44166;DHT22;30476;53.468;9.826;2023-02-22T01:53:02;10.30;99.90
44166;DHT22;30476;53.468;9.826;2023-02-22T01:55:30;10.30;99.90
44166;DHT22;30476;53.468;9.826;2023-02-22T01:57:57;10.30;99.90
44166;DHT22;30476;53.468;9.826;2023-02-22T02:00:23;10.30;99.90
44166;DHT22;30476;53.468;9.826;2023-02-22T02:02:59;10.30;99.90
44166;DHT22;30476;53.468;9.826;2023-02-22T02:05:27;10.30;99.90
44166;DHT22;30476;53.468;9.826;2023-02-22T02:07:57;10.30;99.90
44166;DHT22;30476;53.468;9.826;2023-02-22T02:10:24;10.30;99.90
44166;DHT22;30476;53.468;9.826;2023-02-22T02:12:51;10.30;99.90
44166;DHT22;30476;53.468;9.826;2023-02-22T02:15:24;10.30;99.90
44166;DHT22;30476;53.468;9.826;2023-02-22T02:17:54;10.30;99.90
44166;DHT22;30476;53.468;9.826;2023-02-22T02:29:13;10.30;99.90
44166;DHT22;30476;53.468;9.826;2023-02-22T02:34:53;10.30;99.90
44166;DHT22;30476;53.468;9.826;2023-02-22T02:45:57;10.20;99.90
44166;DHT22;30476;53.468;9.826;2023-02-22T02:48:27;10.20;99.90
44166;DHT22;30476;53.468;9.826;2023-02-22T02:50:56;10.20;99.90
44166;DHT22;30476;53.468;9.826;2023-02-22T02:53:30;10.20;99.90
44166;DHT22;30476;53.468;9.826;2023-02-22T02:55:58;10.20;99.90
44166;DHT22;30476;53.468;9.826;2023-02-22T02:58:24;10.20;99.90
44166;DHT22;30476;53.468;9.826;2023-02-22T03:00:53;10.20;99.90
44166;DHT22;30476;53.468;9.826;2023-02-22T03:03:52;10.20;99.90
44166;DHT22;30476;53.468;9.826;2023-02-22T03:06:34;10.20;99.90
44166;DHT22;30476;53.468;9.826;2023-02-22T03:18:10;10.20;99.90
44166;DHT22;30476;53.468;9.826;2023-02-22T03:23:41;10.20;99.90
44166;DHT22;30476;53.468;9.826;2023-02-22T03:26:10;10.20;99.90
44166;DHT22;30476;53.468;9.826;2023-02-22T03:28:40;10.20;99.90
44166;DHT22;30476;53.468;9.826;2023-02-22T03:31:12;10.20;99.90
44166;DHT22;30476;53.468;9.826;2023-02-22T03:33:56;10.20;99.90
44166;DHT22;30476;53.468;9.826;2023-02-22T03:36:33;10.10;99.90
44166;DHT22;30476;53.468;9.826;2023-02-22T03:39:06;10.20;99.90
44166;DHT22;30476;53.468;9.826;2023-02-22T03:41:35;10.20;99.90
44166;DHT22;30476;53.468;9.826;2023-02-22T03:44:08;10.20;99.90
44166;DHT22;30476;53.468;9.826;2023-02-22T03:46:35;10.20;99.90
44166;DHT22;30476;53.468;9.826;2023-02-22T03:49:17;10.20;99.90
44166;DHT22;30476;53.468;9.826;2023-02-22T03:51:45;10.20;99.90
44166;DHT22;30476;53.468;9.826;2023-02-22T03:54:11;10.20;99.90
44166;DHT22;30476;53.468;9.826;2023-02-22T03:56:50;10.20;99.90
44166;DHT22;30476;53.468;9.826;2023-02-22T03:59:17;10.20;99.90
44166;DHT22;30476;53.468;9.826;2023-02-22T04:01:44;10.20;99.90
44166;DHT22;30476;53.468;9.826;2023-02-22T04:04:10;10.20;99.90
44166;DHT22;30476;53.468;9.826;2023-02-22T04:06:35;10.20;99.90
44166;DHT22;30476;53.468;9.826;2023-02-22T04:09:02;10.20;99.90
44166;DHT22;30476;53.468;9.826;2023-02-22T04:11:27;10.20;99.90
44166;DHT22;30476;53.468;9.826;2023-02-22T04:13:53;10.30;99.90
44166;DHT22;30476;53.468;9.826;2023-02-22T04:16:19;10.30;99.90
44166;DHT22;30476;53.468;9.826;2023-02-22T04:18:45;10.20;99.90
44166;DHT22;30476;53.468;9.826;2023-02-22T04:21:11;10.20;99.90
44166;DHT22;30476;53.468;9.826;2023-02-22T04:23:36;10.40;99.90
44166;DHT22;30476;53.468;9.826;2023-02-22T04:26:02;10.20;99.90
44166;DHT22;30476;53.468;9.826;2023-02-22T04:28:28;10.30;99.90
44166;DHT22;30476;53.468;9.826;2023-02-22T04:30:54;10.20;99.90
44166;DHT22;30476;53.468;9.826;2023-02-22T04:33:20;10.30;99.90
44166;DHT22;30476;53.468;9.826;2023-02-22T04:35:45;10.20;99.90
44166;DHT22;30476;53.468;9.826;2023-02-22T04:38:11;10.20;99.90
44166;DHT22;30476;53.468;9.826;2023-02-22T04:40:37;10.30;99.90
44166;DHT22;30476;53.468;9.826;2023-02-22T04:43:03;10.30;99.90
44166;DHT22;30476;53.468;9.826;2023-02-22T04:45:29;10.30;99.90
44166;DHT22;30476;53.468;9.826;2023-02-22T04:47:55;10.20;99.90
44166;DHT22;30476;53.468;9.826;2023-02-22T04:50:21;10.20;99.90
44166;DHT22;30476;53.468;9.826;2023-02-22T04:52:48;10.20;99.90
44166;DHT22;30476;53.468;9.826;2023-02-22T04:55:14;10.30;99.90
44166;DHT22;30476;53.468;9.826;2023-02-22T04:57:41;10.20;99.90
44166;DHT22;30476;53.468;9.826;2023-02-22T05:00:07;10.20;99.90
44166;DHT22;30476;53.468;9.826;2023-02-22T05:02:37;10.20;99.90
44166;DHT22;30476;53.468;9.826;2023-02-22T05:05:04;10.20;99.90
44166;DHT22;30476;53.468;9.826;2023-02-22T05:07:30;10.30;99.90
44166;DHT22;30476;53.468;9.826;2023-02-22T05:09:56;10.30;99.90
44166;DHT22;30476;53.468;9.826;2023-02-22T05:12:21;10.30;99.90
44166;DHT22;30476;53.468;9.826;2023-02-22T05:14:47;10.30;99.90
44166;DHT22;30476;53.468;9.826;2023-02-22T05:17:13;10.20;99.90
44166;DHT22;30476;53.468;9.826;2023-02-22T05:19:39;10.30;99.90
44166;DHT22;30476;53.468;9.826;2023-02-22T05:22:06;10.30;99.90
44166;DHT22;30476;53.468;9.826;2023-02-22T05:24:32;10.20;99.90
44166;DHT22;30476;53.468;9.826;2023-02-22T05:27:00;10.20;99.90
44166;DHT22;30476;53.468;9.826;2023-02-22T05:29:26;10.20;99.90
44166;DHT22;30476;53.468;9.826;2023-02-22T05:31:52;10.20;99.90
44166;DHT22;30476;53.468;9.826;2023-02-22T05:34:17;10.20;99.90
44166;DHT22;30476;53.468;9.826;2023-02-22T05:36:43;10.20;99.90
44166;DHT22;30476;53.468;9.826;2023-02-22T05:39:09;10.30;99.90
44166;DHT22;30476;53.468;9.826;2023-02-22T05:41:35;10.30;99.90
44166;DHT22;30476;53.468;9.826;2023-02-22T05:44:01;10.30;99.90
44166;DHT22;30476;53.468;9.826;2023-02-22T05:46:27;10.20;99.90
44166;DHT22;30476;53.468;9.826;2023-02-22T05:48:53;10.20;99.90
44166;DHT22;30476;53.468;9.826;2023-02-22T05:51:19;10.30;99.90
44166;DHT22;30476;53.468;9.826;2023-02-22T05:53:45;10.20;99.90
44166;DHT22;30476;53.468;9.826;2023-02-22T05:56:11;10.20;99.90
44166;DHT22;30476;53.468;9.826;2023-02-22T05:58:36;10.20;99.90
44166;DHT22;30476;53.468;9.826;2023-02-22T06:01:02;10.20;99.90
44166;DHT22;30476;53.468;9.826;2023-02-22T06:03:28;10.20;99.90
44166;DHT22;30476;53.468;9.826;2023-02-22T06:05:54;10.30;99.90
44166;DHT22;30476;53.468;9.826;2023-02-22T06:08:19;10.20;99.90
44166;DHT22;30476;53.468;9.826;2023-02-22T06:10:45;10.20;99.90
44166;DHT22;30476;53.468;9.826;2023-02-22T06:13:11;10.20;99.90
44166;DHT22;30476;53.468;9.826;2023-02-22T06:15:37;10.20;99.90
44166;DHT22;30476;53.468;9.826;2023-02-22T06:18:03;10.20;99.90
44166;DHT22;30476;53.468;9.826;2023-02-22T06:20:29;10.20;99.90
44166;DHT22;30476;53.468;9.826;2023-02-22T06:22:56;10.30;99.90
44166;DHT22;30476;53.468;9.826;2023-02-22T06:25:26;10.20;99.90
44166;DHT22;30476;53.468;9.826;2023-02-22T06:27:52;10.20;99.90
44166;DHT22;30476;53.468;9.826;2023-02-22T06:30:20;10.20;99.90
44166;DHT22;30476;53.468;9.826;2023-02-22T06:32:46;10.20;99.90
44166;DHT22;30476;53.468;9.826;2023-02-22T06:35:13;10.20;99.90
44166;DHT22;30476;53.468;9.826;2023-02-22T06:37:39;10.20;99.90
44166;DHT22;30476;53.468;9.826;2023-02-22T06:40:05;10.30;99.90
44166;DHT22;30476;53.468;9.826;2023-02-22T06:42:31;10.20;99.90
44166;DHT22;30476;53.468;9.826;2023-02-22T06:44:57;10.20;99.90
44166;DHT22;30476;53.468;9.826;2023-02-22T06:47:23;10.20;99.90
44166;DHT22;30476;53.468;9.826;2023-02-22T06:49:56;10.20;99.90
44166;DHT22;30476;53.468;9.826;2023-02-22T06:52:23;10.20;99.90
44166;DHT22;30476;53.468;9.826;2023-02-22T06:54:50;10.30;99.90
44166;DHT22;30476;53.468;9.826;2023-02-22T06:57:16;10.30;99.90
44166;DHT22;30476;53.468;9.826;2023-02-22T06:59:42;10.30;99.90
44166;DHT22;30476;53.468;9.826;2023-02-22T07:02:11;10.30;99.90
44166;DHT22;30476;53.468;9.826;2023-02-22T07:04:38;10.30;99.90
44166;DHT22;30476;53.468;9.826;2023-02-22T07:07:04;10.30;99.90
44166;DHT22;30476;53.468;9.826;2023-02-22T07:09:30;10.30;99.90
44166;DHT22;30476;53.468;9.826;2023-02-22T07:11:56;10.30;99.90
44166;DHT22;30476;53.468;9.826;2023-02-22T07:14:21;10.30;99.90
44166;DHT22;30476;53.468;9.826;2023-02-22T07:16:47;10.30;99.90
44166;DHT22;30476;53.468;9.826;2023-02-22T07:19:13;10.30;99.90
44166;DHT22;30476;53.468;9.826;2023-02-22T07:21:39;10.30;99.90
44166;DHT22;30476;53.468;9.826;2023-02-22T07:24:05;10.40;99.90
44166;DHT22;30476;53.468;9.826;2023-02-22T07:26:38;10.40;99.90
44166;DHT22;30476;53.468;9.826;2023-02-22T07:29:04;10.40;99.90
44166;DHT22;30476;53.468;9.826;2023-02-22T07:31:37;10.40;99.90
44166;DHT22;30476;53.468;9.826;2023-02-22T07:34:03;10.30;99.90
44166;DHT22;30476;53.468;9.826;2023-02-22T07:36:29;10.30;99.90
44166;DHT22;30476;53.468;9.826;2023-02-22T07:38:55;10.30;99.90
44166;DHT22;30476;53.468;9.826;2023-02-22T07:41:21;10.40;99.90
44166;DHT22;30476;53.468;9.826;2023-02-22T07:43:47;10.40;99.90
44166;DHT22;30476;53.468;9.826;2023-02-22T07:46:13;10.40;99.90
44166;DHT22;30476;53.468;9.826;2023-02-22T07:48:39;10.40;99.90
44166;DHT22;30476;53.468;9.826;2023-02-22T07:51:06;10.40;99.90
44166;DHT22;30476;53.468;9.826;2023-02-22T07:53:32;10.40;99.90
44166;DHT22;30476;53.468;9.826;2023-02-22T07:56:00;10.40;99.90
44166;DHT22;30476;53.468;9.826;2023-02-22T07:58:28;10.40;99.90
44166;DHT22;30476;53.468;9.826;2023-02-22T08:00:55;10.50;99.90
44166;DHT22;30476;53.468;9.826;2023-02-22T08:03:23;10.50;99.90
44166;DHT22;30476;53.468;9.826;2023-02-22T08:05:54;10.50;99.90
44166;DHT22;30476;53.468;9.826;2023-02-22T08:08:21;10.50;99.90
44166;DHT22;30476;53.468;9.826;2023-02-22T08:10:48;10.50;99.90
44166;DHT22;30476;53.468;9.826;2023-02-22T08:13:15;10.50;99.90
44166;DHT22;30476;53.468;9.826;2023-02-22T08:15:41;10.60;99.90
44166;DHT22;30476;53.468;9.826;2023-02-22T08:18:14;10.60;99.90
44166;DHT22;30476;53.468;9.826;2023-02-22T08:20:42;10.60;99.90
44166;DHT22;30476;53.468;9.826;2023-02-22T08:23:09;10.60;99.90
44166;DHT22;30476;53.468;9.826;2023-02-22T08:25:36;10.60;99.90
44166;DHT22;30476;53.468;9.826;2023-02-22T08:28:05;10.70;99.90
44166;DHT22;30476;53.468;9.826;2023-02-22T08:30:34;10.70;99.90
44166;DHT22;30476;53.468;9.826;2023-02-22T08:33:01;10.70;99.90
44166;DHT22;30476;53.468;9.826;2023-02-22T08:35:28;10.80;99.90
44166;DHT22;30476;53.468;9.826;2023-02-22T08:37:57;10.80;99.90
44166;DHT22;30476;53.468;9.826;2023-02-22T08:40:26;10.80;99.90
44166;DHT22;30476;53.468;9.826;2023-02-22T08:42:52;10.80;99.90
44166;DHT22;30476;53.468;9.826;2023-02-22T08:45:18;10.80;99.90
44166;DHT22;30476;53.468;9.826;2023-02-22T08:47:45;10.80;99.90
44166;DHT22;30476;53.468;9.826;2023-02-22T08:50:27;10.80;99.90
44166;DHT22;30476;53.468;9.826;2023-02-22T08:52:55;10.90;99.90
44166;DHT22;30476;53.468;9.826;2023-02-22T08:55:23;10.90;99.90
44166;DHT22;30476;53.468;9.826;2023-02-22T08:57:49;10.90;99.90
44166;DHT22;30476;53.468;9.826;2023-02-22T09:00:19;10.80;99.90
44166;DHT22;30476;53.468;9.826;2023-02-22T09:02:45;10.90;99.90
44166;DHT22;30476;53.468;9.826;2023-02-22T09:05:11;10.90;99.90
44166;DHT22;30476;53.468;9.826;2023-02-22T09:07:40;10.90;99.90
44166;DHT22;30476;53.468;9.826;2023-02-22T09:10:09;10.90;99.90
44166;DHT22;30476;53.468;9.826;2023-02-22T09:12:36;10.90;99.90
44166;DHT22;30476;53.468;9.826;2023-02-22T09:15:02;10.90;99.90
44166;DHT22;30476;53.468;9.826;2023-02-22T09:17:27;11.00;99.90
44166;DHT22;30476;53.468;9.826;2023-02-22T09:19:53;11.00;99.90
44166;DHT22;30476;53.468;9.826;2023-02-22T09:22:19;10.90;99.90
44166;DHT22;30476;53.468;9.826;2023-02-22T09:24:45;11.00;99.90
44166;DHT22;30476;53.468;9.826;2023-02-22T09:27:11;11.00;99.90
44166;DHT22;30476;53.468;9.826;2023-02-22T09:29:36;11.10;99.90
44166;DHT22;30476;53.468;9.826;2023-02-22T09:32:04;11.10;99.90
44166;DHT22;30476;53.468;9.826;2023-02-22T09:34:30;11.10;99.90
44166;DHT22;30476;53.468;9.826;2023-02-22T09:37:00;11.20;99.90
44166;DHT22;30476;53.468;9.826;2023-02-22T09:39:26;11.20;99.90
44166;DHT22;30476;53.468;9.826;2023-02-22T09:44:29;11.20;99.90
44166;DHT22;30476;53.468;9.826;2023-02-22T09:47:01;11.20;99.90
44166;DHT22;30476;53.468;9.826;2023-02-22T09:49:40;11.30;99.90
44166;DHT22;30476;53.468;9.826;2023-02-22T09:52:24;11.30;99.90
44166;DHT22;30476;53.468;9.826;2023-02-22T09:57:39;11.30;99.90
44166;DHT22;30476;53.468;9.826;2023-02-22T10:00:17;11.30;99.90
44166;DHT22;30476;53.468;9.826;2023-02-22T10:05:36;11.30;99.90
44166;DHT22;30476;53.468;9.826;2023-02-22T10:08:18;11.30;99.90
44166;DHT22;30476;53.468;9.826;2023-02-22T10:10:46;11.40;99.90
44166;DHT22;30476;53.468;9.826;2023-02-22T10:16:40;11.40;99.90
44166;DHT22;30476;53.468;9.826;2023-02-22T10:19:16;11.50;99.90
44166;DHT22;30476;53.468;9.826;2023-02-22T10:27:18;11.60;99.90
44166;DHT22;30476;53.468;9.826;2023-02-22T10:30:36;11.60;99.90
44166;DHT22;30476;53.468;9.826;2023-02-22T10:32:44;11.60;99.90
44166;DHT22;30476;53.468;9.826;2023-02-22T10:35:26;11.70;99.90
44166;DHT22;30476;53.468;9.826;2023-02-22T10:37:56;11.80;99.90
44166;DHT22;30476;53.468;9.826;2023-02-22T10:40:25;11.80;99.90
44166;DHT22;30476;53.468;9.826;2023-02-22T10:43:04;11.90;99.90
44166;DHT22;30476;53.468;9.826;2023-02-22T10:45:31;11.90;99.90
44166;DHT22;30476;53.468;9.826;2023-02-22T10:48:02;12.00;99.90
44166;DHT22;30476;53.468;9.826;2023-02-22T10:50:34;12.00;99.90
44166;DHT22;30476;53.468;9.826;2023-02-22T10:53:01;12.00;99.90
44166;DHT22;30476;53.468;9.826;2023-02-22T10:55:28;12.10;99.90
44166;DHT22;30476;53.468;9.826;2023-02-22T10:58:05;12.20;99.90
44166;DHT22;30476;53.468;9.826;2023-02-22T11:00:37;12.20;99.90
44166;DHT22;30476;53.468;9.826;2023-02-22T11:03:20;12.30;99.90
44166;DHT22;30476;53.468;9.826;2023-02-22T11:05:47;12.40;99.90
44166;DHT22;30476;53.468;9.826;2023-02-22T11:10:40;12.60;99.90
44166;DHT22;30476;53.468;9.826;2023-02-22T11:15:43;12.70;99.90
44166;DHT22;30476;53.468;9.826;2023-02-22T11:18:23;12.80;99.90
44166;DHT22;30476;53.468;9.826;2023-02-22T11:20:58;12.80;99.90
44166;DHT22;30476;53.468;9.826;2023-02-22T11:23:24;12.90;99.90
44166;DHT22;30476;53.468;9.826;2023-02-22T11:26:03;12.90;99.90
44166;DHT22;30476;53.468;9.826;2023-02-22T11:28:30;12.80;99.90
44166;DHT22;30476;53.468;9.826;2023-02-22T11:31:21;12.90;99.90
44166;DHT22;30476;53.468;9.826;2023-02-22T11:34:01;12.90;99.90
44166;DHT22;30476;53.468;9.826;2023-02-22T11:36:36;12.80;99.90
44166;DHT22;30476;53.468;9.826;2023-02-22T11:39:28;12.90;99.90
44166;DHT22;30476;53.468;9.826;2023-02-22T11:41:56;12.90;99.90
44166;DHT22;30476;53.468;9.826;2023-02-22T11:44:28;12.90;99.90
44166;DHT22;30476;53.468;9.826;2023-02-22T11:46:57;12.90;99.90
44166;DHT22;30476;53.468;9.826;2023-02-22T11:49:37;13.00;99.90
44166;DHT22;30476;53.468;9.826;2023-02-22T11:52:18;13.00;99.90
44166;DHT22;30476;53.468;9.826;2023-02-22T12:00:50;13.20;99.90
44166;DHT22;30476;53.468;9.826;2023-02-22T12:03:46;13.30;99.90
44166;DHT22;30476;53.468;9.826;2023-02-22T12:14:51;13.50;99.90
44166;DHT22;30476;53.468;9.826;2023-02-22T12:17:47;13.60;99.90
44166;DHT22;30476;53.468;9.826;2023-02-22T12:20:19;13.70;99.90
44166;DHT22;30476;53.468;9.826;2023-02-22T12:23:06;13.90;99.90
44166;DHT22;30476;53.468;9.826;2023-02-22T12:28:37;14.00;99.90
44166;DHT22;30476;53.468;9.826;2023-02-22T12:31:07;14.10;99.90
44166;DHT22;30476;53.468;9.826;2023-02-22T12:33:45;14.20;99.90
44166;DHT22;30476;53.468;9.826;2023-02-22T12:36:17;14.20;99.90
44166;DHT22;30476;53.468;9.826;2023-02-22T12:38:49;14.30;99.90
44166;DHT22;30476;53.468;9.826;2023-02-22T12:41:27;14.30;99.90
44166;DHT22;30476;53.468;9.826;2023-02-22T12:46:46;14.40;99.90
44166;DHT22;30476;53.468;9.826;2023-02-22T12:49:19;14.50;99.90
44166;DHT22;30476;53.468;9.826;2023-02-22T12:57:33;14.50;99.90
44166;DHT22;30476;53.468;9.826;2023-02-22T13:00:06;14.60;99.90
44166;DHT22;30476;53.468;9.826;2023-02-22T13:03:04;14.60;99.90
44166;DHT22;30476;53.468;9.826;2023-02-22T13:05:37;14.60;99.90
44166;DHT22;30476;53.468;9.826;2023-02-22T13:08:26;14.60;99.90
44166;DHT22;30476;53.468;9.826;2023-02-22T13:19:14;14.50;99.90
44166;DHT22;30476;53.468;9.826;2023-02-22T13:22:06;14.40;99.90
44166;DHT22;30476;53.468;9.826;2023-02-22T13:30:53;14.30;99.90
44166;DHT22;30476;53.468;9.826;2023-02-22T13:47:48;14.30;99.90
44166;DHT22;30476;53.468;9.826;2023-02-22T13:52:53;14.20;99.90
44166;DHT22;30476;53.468;9.826;2023-02-22T13:55:27;14.20;99.90
44166;DHT22;30476;53.468;9.826;2023-02-22T13:58:10;14.20;99.90
44166;DHT22;30476;53.468;9.826;2023-02-22T14:10:52;14.20;99.90
44166;DHT22;30476;53.468;9.826;2023-02-22T14:13:23;14.20;99.90
44166;DHT22;30476;53.468;9.826;2023-02-22T14:18:43;14.20;99.90
44166;DHT22;30476;53.468;9.826;2023-02-22T14:21:18;14.20;99.90
44166;DHT22;30476;53.468;9.826;2023-02-22T14:23:50;14.20;99.90
44166;DHT22;30476;53.468;9.826;2023-02-22T14:26:25;14.20;99.90
44166;DHT22;30476;53.468;9.826;2023-02-22T14:28:54;14.20;99.90
44166;DHT22;30476;53.468;9.826;2023-02-22T14:31:27;14.20;99.90
44166;DHT22;30476;53.468;9.826;2023-02-22T14:34:01;14.10;99.90
44166;DHT22;30476;53.468;9.826;2023-02-22T14:36:39;14.10;99.90
44166;DHT22;30476;53.468;9.826;2023-02-22T14:39:19;14.20;99.90
44166;DHT22;30476;53.468;9.826;2023-02-22T14:42:15;14.10;99.90
44166;DHT22;30476;53.468;9.826;2023-02-22T14:45:02;14.20;99.90
44166;DHT22;30476;53.468;9.826;2023-02-22T14:47:38;14.20;99.90
44166;DHT22;30476;53.468;9.826;2023-02-22T14:50:40;14.10;99.90
44166;DHT22;30476;53.468;9.826;2023-02-22T14:56:04;14.10;99.90
44166;DHT22;30476;53.468;9.826;2023-02-22T15:01:19;14.00;99.90
44166;DHT22;30476;53.468;9.826;2023-02-22T15:03:46;13.90;99.90
44166;DHT22;30476;53.468;9.826;2023-02-22T15:06:18;13.90;99.90
44166;DHT22;30476;53.468;9.826;2023-02-22T15:08:46;13.90;99.90
44166;DHT22;30476;53.468;9.826;2023-02-22T15:11:24;13.80;99.90
44166;DHT22;30476;53.468;9.826;2023-02-22T15:13:53;13.80;99.90
44166;DHT22;30476;53.468;9.826;2023-02-22T15:16:20;13.80;99.90
44166;DHT22;30476;53.468;9.826;2023-02-22T15:18:48;13.80;99.90
44166;DHT22;30476;53.468;9.826;2023-02-22T15:21:19;13.80;99.90
44166;DHT22;30476;53.468;9.826;2023-02-22T15:24:17;13.80;99.90
44166;DHT22;30476;53.468;9.826;2023-02-22T15:26:46;13.70;99.90
44166;DHT22;30476;53.468;9.826;2023-02-22T15:29:18;13.60;99.90
44166;DHT22;30476;53.468;9.826;2023-02-22T15:31:44;13.60;99.90
44166;DHT22;30476;53.468;9.826;2023-02-22T15:36:37;13.60;99.90
44166;DHT22;30476;53.468;9.826;2023-02-22T15:39:03;13.50;99.90
44166;DHT22;30476;53.468;9.826;2023-02-22T15:41:34;13.50;99.90
44166;DHT22;30476;53.468;9.826;2023-02-22T15:46:26;13.40;99.90
44166;DHT22;30476;53.468;9.826;2023-02-22T15:51:32;13.40;99.90
44166;DHT22;30476;53.468;9.826;2023-02-22T15:54:00;13.30;99.90
44166;DHT22;30476;53.468;9.826;2023-02-22T15:56:29;13.30;99.90
44166;DHT22;30476;53.468;9.826;2023-02-22T15:59:17;13.30;99.90
44166;DHT22;30476;53.468;9.826;2023-02-22T16:01:46;13.30;99.90
44166;DHT22;30476;53.468;9.826;2023-02-22T16:04:19;13.20;99.90
44166;DHT22;30476;53.468;9.826;2023-02-22T16:06:46;13.20;99.90
44166;DHT22;30476;53.468;9.826;2023-02-22T16:11:43;13.10;99.90
44166;DHT22;30476;53.468;9.826;2023-02-22T16:16:49;13.10;99.90
44166;DHT22;30476;53.468;9.826;2023-02-22T16:19:37;13.00;99.90
44166;DHT22;30476;53.468;9.826;2023-02-22T16:22:05;13.00;99.90
44166;DHT22;30476;53.468;9.826;2023-02-22T16:24:38;13.00;99.90
44166;DHT22;30476;53.468;9.826;2023-02-22T16:29:40;12.90;99.90
44166;DHT22;30476;53.468;9.826;2023-02-22T16:32:06;12.90;99.90
44166;DHT22;30476;53.468;9.826;2023-02-22T16:34:32;12.80;99.90
44166;DHT22;30476;53.468;9.826;2023-02-22T16:36:59;12.80;99.90
44166;DHT22;30476;53.468;9.826;2023-02-22T16:39:28;12.80;99.90
44166;DHT22;30476;53.468;9.826;2023-02-22T16:41:57;12.80;99.90
44166;DHT22;30476;53.468;9.826;2023-02-22T16:44:23;12.80;99.90
44166;DHT22;30476;53.468;9.826;2023-02-22T16:46:54;12.60;99.90
44166;DHT22;30476;53.468;9.826;2023-02-22T16:49:20;12.70;99.90
44166;DHT22;30476;53.468;9.826;2023-02-22T16:51:55;12.60;99.90
44166;DHT22;30476;53.468;9.826;2023-02-22T16:54:25;12.60;99.90
44166;DHT22;30476;53.468;9.826;2023-02-22T16:56:55;12.60;99.90
44166;DHT22;30476;53.468;9.826;2023-02-22T16:59:21;12.60;99.90
44166;DHT22;30476;53.468;9.826;2023-02-22T17:01:47;12.50;99.90
44166;DHT22;30476;53.468;9.826;2023-02-22T17:04:20;12.50;99.90
44166;DHT22;30476;53.468;9.826;2023-02-22T17:06:47;12.50;99.90
44166;DHT22;30476;53.468;9.826;2023-02-22T17:09:13;12.40;99.90
44166;DHT22;30476;53.468;9.826;2023-02-22T17:11:40;12.40;99.90
44166;DHT22;30476;53.468;9.826;2023-02-22T17:14:06;12.40;99.90
44166;DHT22;30476;53.468;9.826;2023-02-22T17:16:32;12.40;99.90
44166;DHT22;30476;53.468;9.826;2023-02-22T17:18:58;12.30;99.90
44166;DHT22;30476;53.468;9.826;2023-02-22T17:21:24;12.30;99.90
44166;DHT22;30476;53.468;9.826;2023-02-22T17:23:50;12.30;99.90
44166;DHT22;30476;53.468;9.826;2023-02-22T17:26:16;12.20;99.90
44166;DHT22;30476;53.468;9.826;2023-02-22T17:28:42;12.20;99.90
44166;DHT22;30476;53.468;9.826;2023-02-22T17:31:21;12.20;99.90
44166;DHT22;30476;53.468;9.826;2023-02-22T17:33:47;12.20;99.90
44166;DHT22;30476;53.468;9.826;2023-02-22T17:36:13;12.10;99.90
44166;DHT22;30476;53.468;9.826;2023-02-22T17:38:38;12.10;99.90
44166;DHT22;30476;53.468;9.826;2023-02-22T17:41:06;12.10;99.90
44166;DHT22;30476;53.468;9.826;2023-02-22T17:43:32;12.10;99.90
44166;DHT22;30476;53.468;9.826;2023-02-22T17:45:58;12.10;99.90
44166;DHT22;30476;53.468;9.826;2023-02-22T17:48:25;12.10;99.90
44166;DHT22;30476;53.468;9.826;2023-02-22T17:50:51;12.10;99.90
44166;DHT22;30476;53.468;9.826;2023-02-22T17:53:18;12.00;99.90
44166;DHT22;30476;53.468;9.826;2023-02-22T17:55:47;12.00;99.90
44166;DHT22;30476;53.468;9.826;2023-02-22T17:58:13;11.90;99.90
44166;DHT22;30476;53.468;9.826;2023-02-22T18:00:42;11.90;99.90
44166;DHT22;30476;53.468;9.826;2023-02-22T18:03:11;11.90;99.90
44166;DHT22;30476;53.468;9.826;2023-02-22T18:05:44;11.90;99.90
44166;DHT22;30476;53.468;9.826;2023-02-22T18:08:11;11.90;99.90
44166;DHT22;30476;53.468;9.826;2023-02-22T18:10:38;11.90;99.90
44166;DHT22;30476;53.468;9.826;2023-02-22T18:13:03;11.80;99.90
44166;DHT22;30476;53.468;9.826;2023-02-22T18:15:30;11.80;99.90